PAMR/MRI METAR and TAF weather

Enter ICAO airport designator
Station Type Date Time Source
PAMR METAR 2021/01/22 06:53 UTC NOAA

PAMR 220653Z 31003KT 10SM OVC095 M01/M04 A3009 RMK AO2 SLP191 T10061039 $


Station Type Date Time Source
PAMR Decoded METAR 2021/01/22 06:53 UTC NOAA

ANCHORAGE MERRILL FIELD, AK, United States (PAMR) 61-13N 149-51W
Jan 22, 2021 - 01:53 AM EST / 2021.01.22 0653 UTC
Wind: from the NW (310 degrees) at 3 MPH (3 KT):0
Visibility: 10 mile(s):0
Sky conditions: overcast
Temperature: 30.9 F (-0.6 C)
Dew Point: 25.0 F (-3.9 C)
Relative Humidity: 78%
Pressure (altimeter): 30.09 in. Hg (1018 hPa)
ob: PAMR 220653Z 31003KT 10SM OVC095 M01/M04 A3009 RMK AO2 SLP191 T10061039
cycle: 7

Station Type Date Time Source
PAMR TAF UTC NOAA

Error!

Example: see airport list